Time;durP1;ratioP1;P1;durP2;ratioP2;P2;SDS_P1;SDS_P2;PMS_P1;PMS_P2;Temp;Humidity;BMP_temperature;BMP_pressure;BME280_temperature;BME280_humidity;BME280_pressure;Samples;Min_cycle;Max_cycle;Signal;HPM_P1;HPM_P2
2021/10/19 00:02:11;;;;;;;35.80;18.90;;;;;;;10.28;85.18;101761.41;4967535;28;20033;-76
2021/10/19 00:04:36;;;;;;;34.50;18.40;;;;;;;10.22;85.52;101758.50;4985864;28;20034;-75
2021/10/19 00:07:02;;;;;;;35.67;18.73;;;;;;;10.29;85.16;101752.66;4967374;28;20104;-76
2021/10/19 00:09:27;;;;;;;37.03;18.77;;;;;;;10.28;85.27;101756.22;4985977;28;20073;-76
2021/10/19 00:11:53;;;;;;;35.47;18.60;;;;;;;10.32;85.05;101757.63;4983775;28;20038;-75
2021/10/19 00:14:18;;;;;;;36.10;19.65;;;;;;;10.38;85.02;101752.84;4985247;28;20038;-75
2021/10/19 00:16:44;;;;;;;33.92;18.40;;;;;;;10.38;84.79;101750.25;4985000;28;20038;-75
2021/10/19 00:19:10;;;;;;;37.88;19.20;;;;;;;10.29;85.26;101752.66;4972598;28;20137;-75
2021/10/19 00:21:35;;;;;;;35.60;18.70;;;;;;;10.42;85.14;101747.28;4969018;28;20041;-75
2021/10/19 00:24:01;;;;;;;41.53;19.60;;;;;;;10.43;84.98;101748.09;4983817;28;20042;-75
2021/10/19 00:26:26;;;;;;;34.90;19.08;;;;;;;10.53;84.92;101743.78;4968701;28;20057;-75
2021/10/19 00:28:52;;;;;;;38.97;18.95;;;;;;;10.42;85.36;101743.88;4972072;28;20042;-75
2021/10/19 00:31:17;;;;;;;34.78;19.30;;;;;;;10.37;85.60;101746.03;4971531;28;20459;-76
2021/10/19 00:33:42;;;;;;;37.45;20.25;;;;;;;10.45;85.78;101746.19;4972635;28;20622;-76
2021/10/19 00:36:08;;;;;;;36.45;17.88;;;;;;;10.38;86.11;101739.88;4968715;28;20038;-75
2021/10/19 00:38:33;;;;;;;35.58;19.77;;;;;;;10.29;86.24;101739.69;4998050;28;20038;-76
2021/10/19 00:40:59;;;;;;;32.65;18.30;;;;;;;10.45;85.96;101741.00;4968661;28;20022;-76
2021/10/19 00:43:26;;;;;;;34.15;18.90;;;;;;;10.40;86.31;101743.19;4971980;28;20062;-76
2021/10/19 00:45:52;;;;;;;37.05;19.10;;;;;;;10.58;85.95;101748.53;4984179;28;20038;-76
2021/10/19 00:48:20;;;;;;;36.75;20.75;;;;;;;10.46;86.12;101742.66;4973283;28;20038;-76
2021/10/19 00:50:46;;;;;;;37.50;19.25;;;;;;;10.55;86.35;101736.69;5000394;28;20610;-75
2021/10/19 00:53:15;;;;;;;37.22;19.45;;;;;;;10.47;86.45;101742.53;4987980;28;20030;-76
2021/10/19 00:55:41;;;;;;;38.70;19.73;;;;;;;10.39;87.19;101749.31;4985565;28;20494;-76
2021/10/19 00:58:07;;;;;;;46.22;21.88;;;;;;;10.51;86.87;101750.88;4999466;28;20066;-77
2021/10/19 01:00:32;;;;;;;38.50;20.88;;;;;;;10.55;87.17;101761.78;4969081;28;20034;-77
2021/10/19 01:02:58;;;;;;;43.28;22.50;;;;;;;10.52;87.62;101757.69;4973351;28;20190;-77
2021/10/19 01:05:24;;;;;;;48.03;23.55;;;;;;;10.41;87.90;101758.59;4985757;28;20398;-75
2021/10/19 01:07:50;;;;;;;41.97;21.55;;;;;;;10.30;88.70;101749.16;4967365;28;20034;-78
2021/10/19 01:10:16;;;;;;;43.80;24.20;;;;;;;10.50;88.47;101749.22;4984834;28;20038;-77
2021/10/19 01:12:42;;;;;;;42.72;22.80;;;;;;;10.38;88.60;101745.91;4971087;28;20018;-77
2021/10/19 01:15:14;;;;;;;47.13;22.92;;;;;;;10.38;89.18;101751.09;4998749;28;20066;-76
2021/10/19 01:17:51;;;;;;;44.70;23.70;;;;;;;10.30;89.70;101748.28;4972765;28;20039;-76
2021/10/19 01:20:38;;;;;;;44.33;23.27;;;;;;;10.34;89.35;101747.13;4983916;28;20045;-76
2021/10/19 01:23:04;;;;;;;37.83;21.65;;;;;;;10.36;89.31;101745.22;4982518;28;20042;-77
2021/10/19 01:25:32;;;;;;;42.85;21.95;;;;;;;10.33;89.62;101732.50;4980900;28;20032;-77
2021/10/19 01:28:01;;;;;;;41.78;21.02;;;;;;;10.38;89.72;101745.06;4973060;28;20089;-77
2021/10/19 01:30:27;;;;;;;38.63;20.52;;;;;;;10.32;89.67;101741.22;4970015;28;20022;-76
2021/10/19 01:32:54;;;;;;;38.85;20.17;;;;;;;10.33;90.21;101733.31;4985376;28;20042;-76
2021/10/19 01:35:30;;;;;;;44.22;21.20;;;;;;;10.33;90.79;101722.16;4987808;28;20523;-76
2021/10/19 01:37:55;;;;;;;41.85;20.35;;;;;;;10.37;90.46;101712.34;4988896;28;20449;-77
2021/10/19 01:40:21;;;;;;;41.47;20.65;;;;;;;10.36;91.18;101713.28;4987856;28;20026;-74
2021/10/19 01:42:46;;;;;;;50.25;22.52;;;;;;;10.40;91.56;101712.88;4979135;28;20552;-75
2021/10/19 01:45:14;;;;;;;47.80;22.23;;;;;;;10.31;92.07;101716.28;4989683;28;20112;-74
2021/10/19 01:47:40;;;;;;;39.75;20.40;;;;;;;10.36;92.56;101714.13;4977557;28;20042;-75
2021/10/19 01:50:07;;;;;;;45.33;20.38;;;;;;;10.33;92.96;101717.78;4985783;28;20041;-77
2021/10/19 01:52:33;;;;;;;36.70;19.90;;;;;;;10.31;92.84;101722.28;4976826;28;20038;-76
2021/10/19 01:54:58;;;;;;;38.00;20.05;;;;;;;10.26;93.24;101721.81;4973151;28;20034;-76
2021/10/19 01:57:24;;;;;;;37.63;20.10;;;;;;;10.39;93.46;101721.59;4991689;28;20056;-78
2021/10/19 01:59:49;;;;;;;35.10;18.30;;;;;;;10.37;93.51;101713.16;4977561;28;20045;-76
2021/10/19 02:02:15;;;;;;;36.70;18.48;;;;;;;10.32;93.78;101718.75;4970636;28;20343;-77
2021/10/19 02:04:41;;;;;;;39.60;20.42;;;;;;;10.31;94.22;101711.91;4987375;28;20030;-76
2021/10/19 02:07:06;;;;;;;36.25;18.40;;;;;;;10.39;94.38;101711.25;4990218;28;20041;-77
2021/10/19 02:09:32;;;;;;;33.80;18.65;;;;;;;10.48;94.24;101707.03;4973107;28;20041;-76
2021/10/19 02:11:58;;;;;;;32.85;19.38;;;;;;;10.46;93.89;101707.16;4971768;28;20587;-77
2021/10/19 02:14:24;;;;;;;36.78;18.15;;;;;;;10.47;94.20;101713.16;4988646;28;20035;-76
2021/10/19 02:16:49;;;;;;;37.25;19.00;;;;;;;10.44;94.46;101698.69;4973452;28;20254;-77
2021/10/19 02:19:15;;;;;;;33.10;19.52;;;;;;;10.51;94.51;101697.22;4956699;28;20035;-76
2021/10/19 02:21:40;;;;;;;33.70;18.92;;;;;;;10.56;94.28;101689.03;4970636;28;20034;-75
2021/10/19 02:24:06;;;;;;;32.80;18.83;;;;;;;10.61;94.14;101689.44;4960444;28;20037;-76
2021/10/19 02:26:32;;;;;;;32.35;17.85;;;;;;;10.71;94.01;101682.50;4974074;28;20422;-76
2021/10/19 02:28:57;;;;;;;33.42;18.50;;;;;;;10.57;94.39;101676.88;4973227;28;20053;-76
2021/10/19 02:31:23;;;;;;;38.33;18.92;;;;;;;10.59;94.57;101669.81;4987642;28;20038;-75
2021/10/19 02:33:48;;;;;;;33.67;18.90;;;;;;;10.71;94.62;101669.53;4995596;28;20497;-76
2021/10/19 02:36:13;;;;;;;33.38;18.33;;;;;;;10.61;94.64;101663.53;4955215;28;20033;-76
2021/10/19 02:38:39;;;;;;;39.47;20.02;;;;;;;10.65;95.22;101658.88;4971067;28;20022;-75
2021/10/19 02:41:04;;;;;;;37.28;20.95;;;;;;;10.60;95.54;101656.69;4964574;28;20454;-74
2021/10/19 02:43:30;;;;;;;35.00;19.02;;;;;;;10.62;95.56;101648.78;4989560;28;20022;-77
2021/10/19 02:45:55;;;;;;;36.92;19.63;;;;;;;10.57;95.58;101656.13;4973760;28;20038;-76
2021/10/19 02:48:21;;;;;;;34.60;20.08;;;;;;;10.52;95.93;101651.34;4973699;28;20034;-76
2021/10/19 02:50:46;;;;;;;35.97;21.33;;;;;;;10.49;96.14;101646.44;4999804;28;20084;-77
2021/10/19 02:53:12;;;;;;;41.33;21.40;;;;;;;10.49;96.28;101634.31;4995144;28;20034;-75
2021/10/19 02:55:37;;;;;;;43.50;22.13;;;;;;;10.48;96.51;101627.47;4966657;28;20042;-76
2021/10/19 02:58:03;;;;;;;41.55;22.45;;;;;;;10.60;96.42;101624.75;4985327;28;20550;-76
2021/10/19 03:00:29;;;;;;;38.72;21.73;;;;;;;10.53;96.61;101627.06;4976335;28;20109;-77
2021/10/19 03:02:54;;;;;;;43.00;23.40;;;;;;;10.44;96.86;101631.28;4969269;28;20060;-76
2021/10/19 03:05:20;;;;;;;50.10;24.67;;;;;;;10.43;97.05;101634.81;4986537;28;20073;-76
2021/10/19 03:07:45;;;;;;;46.47;24.92;;;;;;;10.51;96.44;101629.00;4971174;28;20034;-75
2021/10/19 03:10:11;;;;;;;45.67;23.38;;;;;;;10.65;96.39;101635.53;4970153;28;20038;-76
2021/10/19 03:12:37;;;;;;;42.45;22.65;;;;;;;10.65;96.06;101640.72;4971105;28;20037;-76
2021/10/19 03:15:03;;;;;;;40.15;24.88;;;;;;;10.68;96.28;101637.84;4968823;28;20519;-77
2021/10/19 03:17:29;;;;;;;49.53;26.27;;;;;;;10.73;96.43;101638.25;4969040;28;20035;-76
2021/10/19 03:19:54;;;;;;;49.00;27.20;;;;;;;10.71;96.17;101643.59;4972543;28;20049;-75
2021/10/19 03:22:20;;;;;;;50.80;27.30;;;;;;;10.77;96.20;101637.03;4991062;28;20038;-77
2021/10/19 03:24:46;;;;;;;50.25;27.15;;;;;;;10.85;96.43;101641.53;4969604;28;20037;-76
2021/10/19 03:27:11;;;;;;;48.25;24.30;;;;;;;10.81;96.44;101632.38;4971507;28;20064;-76
2021/10/19 03:29:37;;;;;;;44.70;25.83;;;;;;;10.74;96.78;101631.28;4971467;28;20026;-75
2021/10/19 03:32:03;;;;;;;47.50;26.38;;;;;;;10.84;97.10;101629.53;4984484;28;20033;-77
2021/10/19 03:34:28;;;;;;;46.38;25.70;;;;;;;10.86;96.94;101625.03;4966065;28;20042;-77
2021/10/19 03:36:54;;;;;;;48.17;26.25;;;;;;;10.73;96.90;101634.84;4983570;28;20039;-76
2021/10/19 03:39:20;;;;;;;50.00;25.75;;;;;;;10.77;97.11;101633.63;4973001;28;20053;-76
2021/10/19 03:41:45;;;;;;;44.90;24.40;;;;;;;10.76;97.37;101634.59;4983728;28;20045;-76
2021/10/19 03:44:11;;;;;;;46.78;25.58;;;;;;;10.71;97.46;101628.00;4986978;28;20274;-76
2021/10/19 03:46:36;;;;;;;43.60;21.92;;;;;;;10.78;97.81;101625.72;4969052;28;20041;-76
2021/10/19 03:49:02;;;;;;;47.15;23.70;;;;;;;10.79;97.77;101631.72;4986797;28;20041;-77
2021/10/19 03:51:28;;;;;;;47.13;22.98;;;;;;;10.72;98.28;101628.84;4970328;28;20052;-77
2021/10/19 03:53:53;;;;;;;40.35;21.65;;;;;;;10.71;97.91;101627.19;4969472;28;20038;-76
2021/10/19 03:56:19;;;;;;;43.67;24.38;;;;;;;10.74;98.13;101626.09;4987063;28;20030;-74
2021/10/19 03:58:44;;;;;;;43.85;23.35;;;;;;;10.73;98.52;101614.91;4992961;28;20042;-77
2021/10/19 04:01:10;;;;;;;46.45;23.63;;;;;;;10.81;98.27;101619.41;4975936;28;20606;-77
2021/10/19 04:03:36;;;;;;;45.38;23.60;;;;;;;10.80;98.72;101616.00;4974854;28;20030;-77
2021/10/19 04:06:01;;;;;;;43.28;24.17;;;;;;;10.89;98.47;101606.59;4969486;28;20023;-77
2021/10/19 04:08:27;;;;;;;48.10;24.17;;;;;;;10.93;97.95;101607.13;4978404;28;20040;-76
2021/10/19 04:10:52;;;;;;;43.50;23.52;;;;;;;10.79;98.60;101618.75;4973630;28;20482;-76
2021/10/19 04:13:18;;;;;;;44.35;23.23;;;;;;;10.75;98.70;101607.81;4955408;28;20034;-76
2021/10/19 04:15:43;;;;;;;41.42;22.98;;;;;;;10.81;99.07;101612.47;4984059;28;20041;-77
2021/10/19 04:18:09;;;;;;;43.13;23.23;;;;;;;10.81;98.90;101607.28;4975013;28;20039;-76
2021/10/19 04:20:34;;;;;;;41.90;23.52;;;;;;;10.81;99.22;101611.63;4973701;28;20380;-77
2021/10/19 04:23:00;;;;;;;42.47;24.17;;;;;;;10.88;99.10;101605.75;4969292;28;20034;-77
2021/10/19 04:25:25;;;;;;;41.70;22.52;;;;;;;10.90;99.28;101598.66;4973464;28;20088;-77
2021/10/19 04:27:51;;;;;;;43.33;22.70;;;;;;;10.84;99.33;101590.63;4972383;28;20046;-76
2021/10/19 04:30:17;;;;;;;41.28;22.52;;;;;;;10.91;99.43;101600.28;4984944;28;20352;-74
2021/10/19 04:32:42;;;;;;;40.67;22.15;;;;;;;10.83;98.99;101597.59;4971817;28;20046;-76
2021/10/19 04:35:08;;;;;;;42.58;24.17;;;;;;;10.82;99.40;101588.16;4983506;28;20692;-76
2021/10/19 04:37:33;;;;;;;47.85;24.10;;;;;;;10.77;99.67;101594.72;4976938;28;20085;-77
2021/10/19 04:39:59;;;;;;;47.70;24.40;;;;;;;10.78;99.78;101589.38;5000076;28;20042;-77
2021/10/19 04:42:27;;;;;;;49.75;24.52;;;;;;;10.78;99.76;101591.97;4997355;28;20030;-75
2021/10/19 04:44:53;;;;;;;47.63;24.20;;;;;;;10.83;99.72;101594.16;4977279;28;20421;-76
2021/10/19 04:47:18;;;;;;;44.88;23.88;;;;;;;10.80;99.66;101587.47;4973700;28;20045;-76
2021/10/19 04:49:44;;;;;;;45.95;25.05;;;;;;;10.86;99.10;101584.31;4970752;28;20061;-75
2021/10/19 04:52:10;;;;;;;44.63;23.52;;;;;;;10.84;99.47;101585.44;4972523;28;20034;-75
2021/10/19 04:54:35;;;;;;;47.92;24.52;;;;;;;10.84;99.32;101580.22;4968387;28;20038;-78
2021/10/19 04:57:00;;;;;;;52.40;24.77;;;;;;;10.83;99.37;101578.59;4954615;28;20415;-75
2021/10/19 04:59:26;;;;;;;47.42;25.67;;;;;;;10.78;99.34;101581.59;4993180;28;20041;-75
2021/10/19 05:01:51;;;;;;;51.10;25.83;;;;;;;10.91;99.21;101579.53;4975905;28;20541;-76
2021/10/19 05:04:17;;;;;;;53.08;26.83;;;;;;;10.85;99.13;101577.50;4969259;28;20030;-75
2021/10/19 05:06:43;;;;;;;53.60;28.20;;;;;;;10.82;99.39;101579.56;4959878;28;20022;-75
2021/10/19 05:09:12;;;;;;;55.13;27.77;;;;;;;10.79;99.81;101579.81;4970376;28;20053;-75
2021/10/19 05:11:37;;;;;;;56.00;27.77;;;;;;;10.81;99.87;101578.75;5005621;28;20030;-77
2021/10/19 05:14:03;;;;;;;54.92;29.95;;;;;;;10.86;99.88;101567.94;4983085;28;20041;-76
2021/10/19 05:16:29;;;;;;;55.20;29.02;;;;;;;10.85;99.87;101571.47;4975465;28;20057;-75
2021/10/19 05:18:54;;;;;;;52.83;28.08;;;;;;;10.85;99.91;101566.28;4979572;28;20042;-75
2021/10/19 05:21:20;;;;;;;57.78;29.30;;;;;;;10.93;99.87;101558.66;4975500;28;20323;-75
2021/10/19 05:23:45;;;;;;;60.47;30.70;;;;;;;10.87;100.00;101573.00;4976809;28;20042;-76
2021/10/19 05:26:13;;;;;;;60.65;31.67;;;;;;;10.89;100.00;101572.88;5004262;28;20029;-76
2021/10/19 05:28:39;;;;;;;61.50;30.17;;;;;;;10.95;100.00;101579.28;4995833;28;20419;-76
2021/10/19 05:31:04;;;;;;;56.97;29.48;;;;;;;10.85;100.00;101585.28;4974150;28;20034;-77
2021/10/19 05:33:30;;;;;;;57.90;30.00;;;;;;;10.86;100.00;101586.91;4977069;28;20030;-76
2021/10/19 05:35:55;;;;;;;63.85;31.25;;;;;;;11.00;100.00;101590.03;4976566;28;20041;-76
2021/10/19 05:38:21;;;;;;;63.60;30.48;;;;;;;11.03;100.00;101579.38;4991521;28;20402;-77
2021/10/19 05:40:47;;;;;;;57.00;30.48;;;;;;;11.06;100.00;101573.94;4993013;28;20081;-77
2021/10/19 05:43:12;;;;;;;55.88;29.10;;;;;;;10.92;100.00;101580.34;4963509;28;20053;-76
2021/10/19 05:45:38;;;;;;;64.53;31.15;;;;;;;10.96;100.00;101571.31;4967489;28;20514;-75
2021/10/19 05:48:04;;;;;;;63.65;30.00;;;;;;;11.01;100.00;101574.31;4982419;28;20096;-76
2021/10/19 05:50:31;;;;;;;59.63;28.95;;;;;;;11.03;100.00;101575.00;4975487;28;20383;-75
2021/10/19 05:52:57;;;;;;;52.80;27.88;;;;;;;11.12;100.00;101569.94;4989790;28;20035;-76
2021/10/19 05:55:22;;;;;;;55.60;27.40;;;;;;;11.11;100.00;101576.91;4975500;28;20069;-78
2021/10/19 05:57:48;;;;;;;49.33;26.92;;;;;;;11.05;100.00;101572.28;4990206;28;20049;-74
2021/10/19 06:00:14;;;;;;;51.75;25.42;;;;;;;11.00;100.00;101564.91;4991967;28;20038;-75
2021/10/19 06:02:39;;;;;;;50.97;25.33;;;;;;;11.06;100.00;101566.94;4974394;28;20027;-76
2021/10/19 06:05:05;;;;;;;55.75;27.80;;;;;;;11.17;100.00;101565.13;4988336;28;20366;-75
2021/10/19 06:07:30;;;;;;;55.55;27.30;;;;;;;11.24;100.00;101556.63;4990719;28;20052;-76
2021/10/19 06:09:55;;;;;;;49.83;26.95;;;;;;;11.12;100.00;101555.19;5001873;28;20100;-75
2021/10/19 06:12:21;;;;;;;49.00;26.17;;;;;;;11.23;100.00;101554.19;4988348;28;20077;-75
2021/10/19 06:14:46;;;;;;;49.08;25.10;;;;;;;11.26;100.00;101562.53;4977369;28;20049;-75
2021/10/19 06:17:12;;;;;;;51.75;24.90;;;;;;;11.26;100.00;101565.13;4987778;28;20030;-75
2021/10/19 06:19:38;;;;;;;48.33;25.25;;;;;;;11.21;100.00;101569.09;4993277;28;20558;-75
2021/10/19 06:22:03;;;;;;;54.50;25.55;;;;;;;11.27;100.00;101563.34;4990097;28;20026;-75
2021/10/19 06:24:29;;;;;;;51.53;25.52;;;;;;;11.25;100.00;101563.47;4970402;28;20037;-75
2021/10/19 06:26:54;;;;;;;51.75;25.15;;;;;;;11.29;100.00;101543.25;4969009;28;20397;-77
2021/10/19 06:29:20;;;;;;;53.78;24.42;;;;;;;11.46;100.00;101539.06;4988256;28;20201;-78
2021/10/19 06:31:46;;;;;;;49.40;24.98;;;;;;;11.39;100.00;101541.41;4971961;28;20402;-75
2021/10/19 06:34:11;;;;;;;48.33;24.33;;;;;;;11.38;100.00;101546.78;5002055;28;20046;-76
2021/10/19 06:36:38;;;;;;;48.58;25.17;;;;;;;11.49;100.00;101551.78;4988209;28;20049;-75
2021/10/19 06:39:04;;;;;;;42.85;24.27;;;;;;;11.38;100.00;101552.78;4991580;28;20105;-75
2021/10/19 06:41:31;;;;;;;44.92;23.73;;;;;;;11.39;100.00;101549.19;4969822;28;20038;-75
2021/10/19 06:43:58;;;;;;;55.72;24.20;;;;;;;11.50;100.00;101553.41;4972272;28;20031;-77
2021/10/19 06:46:24;;;;;;;49.85;23.25;;;;;;;11.53;100.00;101552.28;4973112;28;20030;-75
2021/10/19 06:48:49;;;;;;;46.08;22.63;;;;;;;11.61;100.00;101542.81;4973458;28;20042;-78
2021/10/19 06:51:15;;;;;;;41.63;20.70;;;;;;;11.50;100.00;101548.22;4968570;28;20088;-75
2021/10/19 06:53:40;;;;;;;44.00;23.50;;;;;;;11.59;100.00;101547.34;4971159;28;20046;-76
2021/10/19 06:56:06;;;;;;;42.58;23.33;;;;;;;11.74;100.00;101560.69;4990811;28;20026;-76
2021/10/19 06:58:31;;;;;;;40.78;20.77;;;;;;;11.58;100.00;101557.88;4985831;28;20030;-75
2021/10/19 07:00:59;;;;;;;43.28;22.33;;;;;;;11.73;100.00;101545.22;4967418;28;20047;-76
2021/10/19 07:03:26;;;;;;;49.03;25.67;;;;;;;11.82;100.00;101552.97;4984579;28;20038;-76
2021/10/19 07:05:52;;;;;;;51.17;24.20;;;;;;;11.68;100.00;101545.69;4987592;28;20084;-75
2021/10/19 07:08:18;;;;;;;53.50;23.75;;;;;;;11.65;100.00;101553.75;4969951;28;20587;-75
2021/10/19 07:10:43;;;;;;;43.90;20.70;;;;;;;11.75;100.00;101546.69;5003387;28;20080;-76
2021/10/19 07:13:09;;;;;;;43.90;22.75;;;;;;;11.74;100.00;101554.66;4986926;28;20070;-75
2021/10/19 07:15:35;;;;;;;49.08;25.17;;;;;;;11.65;100.00;101551.97;4987577;28;20041;-76
2021/10/19 07:18:05;;;;;;;49.15;26.13;;;;;;;11.61;100.00;101560.19;4985641;28;20623;-75
2021/10/19 07:20:31;;;;;;;50.58;25.00;;;;;;;11.76;100.00;101550.94;4985325;28;20053;-75
2021/10/19 07:22:59;;;;;;;49.78;25.92;;;;;;;11.68;100.00;101559.47;4985829;28;20034;-74
2021/10/19 07:25:28;;;;;;;63.00;30.45;;;;;;;11.60;100.00;101555.94;4993655;28;20033;-74
2021/10/19 07:27:57;;;;;;;54.72;25.83;;;;;;;11.60;100.00;101556.78;4953255;28;20046;-74
2021/10/19 07:30:22;;;;;;;62.35;27.60;;;;;;;11.62;100.00;101562.66;4969025;28;20034;-75
2021/10/19 07:32:48;;;;;;;50.72;27.00;;;;;;;11.64;100.00;101559.88;4987106;28;20501;-74
2021/10/19 07:35:16;;;;;;;53.03;26.08;;;;;;;11.58;100.00;101560.47;4972589;28;20035;-75
2021/10/19 07:37:42;;;;;;;51.90;25.17;;;;;;;11.66;100.00;101558.81;4970735;28;20041;-75
2021/10/19 07:40:09;;;;;;;50.10;26.85;;;;;;;11.67;100.00;101570.00;4956184;28;20039;-74
2021/10/19 07:42:36;;;;;;;45.70;25.27;;;;;;;11.80;100.00;101574.88;4969844;28;20089;-73
2021/10/19 07:45:07;;;;;;;52.80;27.17;;;;;;;11.76;100.00;101568.31;4998687;28;20030;-75
2021/10/19 07:47:38;;;;;;;50.05;26.27;;;;;;;11.70;100.00;101556.75;5002530;28;20030;-76
2021/10/19 07:50:04;;;;;;;49.97;27.25;;;;;;;11.71;100.00;101557.53;4990701;28;20032;-76
2021/10/19 07:52:30;;;;;;;44.45;24.58;;;;;;;11.69;100.00;101557.69;4998323;28;20027;-75
2021/10/19 07:54:55;;;;;;;52.08;25.65;;;;;;;11.74;100.00;101568.47;5001790;28;20112;-74
2021/10/19 07:57:21;;;;;;;51.22;26.23;;;;;;;11.79;100.00;101576.66;4968104;28;20051;-76
2021/10/19 07:59:46;;;;;;;49.72;26.50;;;;;;;11.79;100.00;101575.81;4976167;28;20077;-75
2021/10/19 08:02:12;;;;;;;48.33;25.23;;;;;;;11.67;100.00;101577.78;4971120;28;20466;-75
2021/10/19 08:04:37;;;;;;;49.33;26.42;;;;;;;11.84;100.00;101568.41;4981270;28;20057;-75
2021/10/19 08:07:04;;;;;;;45.85;24.13;;;;;;;11.81;100.00;101577.31;4980611;28;20557;-75
2021/10/19 08:09:30;;;;;;;46.30;23.70;;;;;;;11.88;100.00;101573.19;4991191;28;20300;-76
2021/10/19 08:11:55;;;;;;;45.75;23.27;;;;;;;11.91;100.00;101576.50;4986015;28;20065;-75
2021/10/19 08:14:21;;;;;;;41.75;22.20;;;;;;;11.94;100.00;101571.81;4987301;28;20419;-74
2021/10/19 08:16:46;;;;;;;38.38;21.15;;;;;;;11.96;100.00;101571.66;4973273;28;20042;-75
2021/10/19 08:19:12;;;;;;;41.08;22.15;;;;;;;11.99;100.00;101573.97;4987043;28;20517;-75
2021/10/19 08:21:37;;;;;;;34.25;19.80;;;;;;;11.96;100.00;101575.09;4986923;28;20438;-75
2021/10/19 08:24:03;;;;;;;41.80;19.73;;;;;;;12.05;100.00;101579.41;4988686;28;20042;-76
2021/10/19 08:26:32;;;;;;;39.75;20.67;;;;;;;12.02;100.00;101574.50;4967416;28;20453;-75
2021/10/19 08:29:02;;;;;;;37.88;19.75;;;;;;;12.11;100.00;101569.38;4969309;28;20446;-75
2021/10/19 08:31:29;;;;;;;38.28;20.88;;;;;;;12.14;100.00;101569.91;4973929;28;20150;-75
2021/10/19 08:33:56;;;;;;;44.78;19.95;;;;;;;12.15;100.00;101565.50;4975974;28;20034;-75
2021/10/19 08:36:22;;;;;;;37.15;18.77;;;;;;;12.14;100.00;101561.28;4970432;28;20034;-76
2021/10/19 08:38:48;;;;;;;44.25;20.63;;;;;;;12.22;100.00;101569.16;4972192;28;20128;-75
2021/10/19 08:41:18;;;;;;;32.28;18.83;;;;;;;12.21;100.00;101568.34;4970576;28;20097;-75
2021/10/19 08:43:45;;;;;;;36.00;18.65;;;;;;;12.24;100.00;101568.06;4983610;28;20038;-76
2021/10/19 08:46:12;;;;;;;43.83;19.15;;;;;;;12.22;100.00;101563.94;4985819;28;20053;-75
2021/10/19 08:48:39;;;;;;;36.60;17.45;;;;;;;12.34;100.00;101562.78;4965506;28;20018;-76
2021/10/19 08:51:06;;;;;;;37.78;18.42;;;;;;;12.32;100.00;101574.28;4987065;28;20117;-76
2021/10/19 08:53:35;;;;;;;35.67;19.48;;;;;;;12.34;100.00;101572.34;4969007;28;20034;-76
2021/10/19 08:56:03;;;;;;;40.50;18.45;;;;;;;12.48;100.00;101565.81;4969867;28;20035;-75
2021/10/19 08:58:29;;;;;;;32.03;16.67;;;;;;;12.50;100.00;101569.91;5000512;28;20370;-74
2021/10/19 09:01:05;;;;;;;34.28;17.25;;;;;;;12.52;100.00;101572.34;4969743;28;20038;-74
2021/10/19 09:03:31;;;;;;;35.17;16.92;;;;;;;12.50;100.00;101572.50;4963094;28;20206;-74
2021/10/19 09:05:57;;;;;;;33.95;17.25;;;;;;;12.46;100.00;101577.19;4987086;28;20037;-76
2021/10/19 09:08:25;;;;;;;32.55;17.17;;;;;;;12.61;100.00;101572.25;4968789;28;20026;-76
2021/10/19 09:10:51;;;;;;;38.35;17.42;;;;;;;12.61;100.00;101567.06;4981364;28;20070;-75
2021/10/19 09:13:19;;;;;;;33.95;15.70;;;;;;;12.56;100.00;101573.69;4970213;28;20439;-75
2021/10/19 09:15:49;;;;;;;36.17;17.65;;;;;;;12.74;100.00;101568.47;4968307;28;20543;-75
2021/10/19 09:18:16;;;;;;;33.22;16.90;;;;;;;12.74;100.00;101564.06;4992308;28;20072;-75
2021/10/19 09:20:46;;;;;;;39.25;16.92;;;;;;;12.66;100.00;101572.63;4982823;28;20045;-75
2021/10/19 09:23:13;;;;;;;37.25;16.75;;;;;;;12.68;100.00;101564.69;4971552;28;20428;-75
2021/10/19 09:25:42;;;;;;;32.33;16.65;;;;;;;12.77;100.00;101553.38;4967241;28;20314;-76
2021/10/19 09:28:11;;;;;;;30.35;15.32;;;;;;;12.84;100.00;101562.19;4980664;28;20096;-75
2021/10/19 09:30:38;;;;;;;27.60;14.88;;;;;;;12.87;100.00;101560.28;4985196;28;20038;-75
2021/10/19 09:33:07;;;;;;;37.60;16.52;;;;;;;12.88;100.00;101557.50;4983786;28;20039;-75
2021/10/19 09:35:36;;;;;;;38.50;18.05;;;;;;;13.04;100.00;101560.19;4968316;28;20034;-74
2021/10/19 09:38:08;;;;;;;35.97;19.20;;;;;;;13.03;100.00;101556.00;4980248;28;20188;-75
2021/10/19 09:40:40;;;;;;;41.58;19.10;;;;;;;13.10;100.00;101566.59;4967236;28;20030;-75
2021/10/19 09:43:17;;;;;;;39.75;19.08;;;;;;;13.00;100.00;101564.09;4969611;28;20104;-76
2021/10/19 09:45:45;;;;;;;27.88;14.45;;;;;;;13.10;100.00;101571.78;4982447;28;20030;-76
2021/10/19 09:48:16;;;;;;;32.70;15.40;;;;;;;13.29;100.00;101560.34;4984800;28;20038;-76
2021/10/19 09:50:43;;;;;;;30.13;14.30;;;;;;;13.33;100.00;101566.09;4969584;28;20042;-77
2021/10/19 09:53:14;;;;;;;26.98;14.38;;;;;;;13.22;100.00;101567.13;4956918;28;20050;-77
2021/10/19 09:55:41;;;;;;;25.20;14.38;;;;;;;13.26;100.00;101560.66;4952535;28;21466;-76
2021/10/19 09:58:07;;;;;;;26.63;13.57;;;;;;;13.23;100.00;101566.19;4960443;28;20038;-76
2021/10/19 10:00:33;;;;;;;30.70;14.00;;;;;;;13.23;100.00;101563.56;4989504;28;20588;-77
2021/10/19 10:03:03;;;;;;;21.95;12.07;;;;;;;13.23;100.00;101558.38;4988934;28;20117;-77
2021/10/19 10:05:30;;;;;;;27.08;12.60;;;;;;;13.42;100.00;101559.94;4987804;28;20026;-77
2021/10/19 10:07:57;;;;;;;18.73;9.73;;;;;;;13.51;100.00;101560.81;5005012;28;20042;-77
2021/10/19 10:10:24;;;;;;;15.82;7.78;;;;;;;13.61;100.00;101558.88;4979487;28;20629;-77
2021/10/19 10:13:07;;;;;;;10.70;6.40;;;;;;;13.67;100.00;101563.47;4991107;28;20444;-77
2021/10/19 10:15:34;;;;;;;;;;;;;;;13.89;100.00;101561.25;4974314;28;20144;-78
2021/10/19 10:18:05;;;;;;;10.55;4.63;;;;;;;14.06;100.00;101569.94;4987970;28;19921;-77
2021/10/19 10:20:47;;;;;;;7.40;4.05;;;;;;;14.19;100.00;101570.28;4987837;28;20042;-78
2021/10/19 10:23:17;;;;;;;7.00;4.78;;;;;;;14.33;100.00;101574.03;5001544;28;20030;-77
2021/10/19 10:25:44;;;;;;;13.20;5.00;;;;;;;14.43;100.00;101569.50;4990011;28;20038;-77
2021/10/19 10:28:27;;;;;;;7.78;4.03;;;;;;;14.37;100.00;101570.97;4969201;28;20033;-76
2021/10/19 10:30:54;;;;;;;;;;;;;;;14.40;100.00;101573.22;5004064;28;20030;-77
2021/10/19 10:33:31;;;;;;;12.50;6.35;;;;;;;14.37;100.00;101568.34;4971159;28;19917;-76
2021/10/19 10:36:07;;;;;;;8.45;4.97;;;;;;;14.41;100.00;101569.66;4986731;28;20038;-77
2021/10/19 10:38:35;;;;;;;7.15;4.78;;;;;;;14.48;100.00;101566.38;4970806;28;20357;-75
2021/10/19 10:41:14;;;;;;;16.92;9.57;;;;;;;14.46;100.00;101576.97;4987098;28;20047;-75
2021/10/19 10:43:40;;;;;;;15.27;8.63;;;;;;;14.57;100.00;101568.84;5004828;28;20039;-76
2021/10/19 10:46:15;;;;;;;14.10;8.38;;;;;;;14.63;100.00;101569.19;4973083;28;20049;-75
2021/10/19 10:48:42;;;;;;;33.47;14.68;;;;;;;14.82;100.00;101566.22;4967734;28;20066;-76
2021/10/19 10:51:10;;;;;;;30.80;14.98;;;;;;;14.74;100.00;101564.44;4987282;28;20041;-75
2021/10/19 10:53:42;;;;;;;39.92;17.15;;;;;;;14.85;100.00;101560.69;5001385;28;20041;-77
2021/10/19 10:56:09;;;;;;;16.77;7.95;;;;;;;14.88;100.00;101555.13;4971540;28;20470;-75
2021/10/19 10:58:37;;;;;;;19.65;10.88;;;;;;;14.99;100.00;101544.34;4976771;28;20120;-75
2021/10/19 11:01:16;;;;;;;19.55;9.90;;;;;;;15.06;100.00;101544.47;5002274;28;20038;-75
2021/10/19 11:03:52;;;;;;;18.52;8.65;;;;;;;15.14;100.00;101541.03;4986948;28;20038;-75
2021/10/19 11:06:22;;;;;;;12.02;6.75;;;;;;;15.21;100.00;101539.38;4989829;28;20084;-77